Sheppard Air Force Base-Wichita Falls Municipal Airport
KSPS : now visible

Airfield :











YOU CAN JOIN US ON...

 
LOGIN :

Register | Disclaimer

   EN    FR    IT 

 









Legend :    VFR   Marginal VFR   IFR   Intensive IFR   Very Intensive IFR
Visi :
Ceiling :
>= 8 km
>= 3000ft
5 to 8 km
1000 to 3000 ft
1500m to 5 km
500 to 1000 ft
800 to 1500m
200 to 500 ft
< 800m
< 200 ft
Symbols :   Thunderstorms  Fog  Heavy snow  Heavy precipitations  Wind > 20 kt







- Airport Elevation : 1019 ft
- IATA code : SPS


KSPS - Sheppard Air Force Base-Wichita Falls Municipal

CURRENT METAR :
  • 210411Z AUTO 02006KT 3SM RA BR BKN028 BKN034 OVC065 21/21 A3002 RMK AO2 LTG DSNT W-NE TSE0354 P0021 T02110211

EXPIRED METARs :
  • 210405Z AUTO 03005KT 2SM +RA BR SCT023 BKN031 OVC065 21/21 A3002 RMK AO2 LTG DSNT N AND NE TSE0354 P0018 T02110211
  • 210352Z AUTO 36003KT 1 1/2SM +TSRA BR BKN025 OVC033 21/21 A3002 RMK AO2 WSHFT 0239 LTG DSNT N AND NE RAB0254 TSB39 SLP154 P0032 T02110211
  • 210341Z AUTO 31008KT 2 1/2SM TSRA BR FEW007 BKN025 OVC031 21/21 A3002 RMK AO2 WSHFT 0239 LTG DSNT N AND W RAB0254 TSB39 P0017 T02110211
  • 210328Z AUTO 32011KT 8SM VCTS -RA SCT007 SCT011 OVC023 21/21 A3002 RMK AO2 WSHFT 0239 LTG DSNT N AND NE AND SW RAB0254 P0009 T02110211
  • 210321Z AUTO 32007KT 7SM VCTS RA BKN007 BKN011 OVC023 21/21 A3003 RMK AO2 WSHFT 0239 LTG DSNT ALQDS RAB0254 CIG 005V009 P0007 T02110211
  • 210259Z AUTO 5SM +RA FEW012 BKN022 OVC070 24/21 A3003 RMK AO2 WSHFT 0239 LTG DSNT SW-N RAB54 PRESRR P0003 T02440211
  • 210252Z AUTO 35012G52KT 270V030 10SM SQ BKN022 OVC070 24/21 A3000 RMK AO2 PK WND 32052/0248 WSHFT 0237 LTG DSNT SW-N RAE13 TSE03 SLP146 P0000 60001 T02440211 53026
  • 210234Z AUTO 12010KT 10SM VCTS BKN070 BKN120 22/22 A2998 RMK AO2 LTG DSNT SW-N RAE13 TSE03 PRESRR P0000 T02220217
  • 210216Z AUTO 10012KT 10SM FEW021 SCT110 22/22 A2994 RMK AO2 LTG DSNT SW-N RAE13 TSE03 P0000 T02170217
  • 210152Z AUTO 12015KT 9SM -TSRA FEW070 FEW090 OVC110 22/22 A2994 RMK AO2 LTG DSNT W AND NW RAB33 TSB43 SLP126 P0001 T02220217

TAF KSPS
Valid from the 21 at 00:00 until the 22 at 00:00 UTC


202327Z 2100/2124 17012KT P6SM FEW025 BKN040
TEMPO 2101/2104 2SM TSRA BKN025CB OVC080
FM210400 16014KT P6SM BKN045 OVC100
FM211200 17015G20KT P6SM SCT015 BKN045
No reported NOTAMs for that airfield.



MET'MAP, your aeronautical weather chart ! - Copyright ORBIFLY December 2007 - Disclaimer

ORBIFLY MET'MAP TEAM :

Programming & Development : Alexandra Zaïnal
Concept & Development : Baudouin d'Aumeries
Co-Development & Prog : Marc-Olivier Méhu
Technical & hardware support : Manuel Goepfert

Contact : metmap@orbifly.com




SOURCES & CREDITS :

   NOAA       Earth
Advisory